Time;durP1;ratioP1;P1;durP2;ratioP2;P2;SDS_P1;SDS_P2;PMS_P1;PMS_P2;Temp;Humidity;BMP_temperature;BMP_pressure;BME280_temperature;BME280_humidity;BME280_pressure;Samples;Min_cycle;Max_cycle;Signal;HPM_P1;HPM_P2
2021/06/08 00:00:48;;;;;;;14.60;11.63;;;;;;;;;;3586629;40;20072;-60
2021/06/08 00:03:13;;;;;;;16.00;11.00;;;;;;;;;;3586726;40;20047;-60
2021/06/08 00:05:38;;;;;;;13.43;10.57;;;;;;;;;;3585611;40;20044;-60
2021/06/08 00:08:04;;;;;;;14.45;11.98;;;;;;;;;;3585682;40;20063;-60
2021/06/08 00:10:30;;;;;;;11.98;10.63;;;;;;;;;;3585440;40;20029;-60
2021/06/08 00:12:55;;;;;;;12.20;10.95;;;;;;;;;;3585296;40;20059;-61
2021/06/08 00:15:20;;;;;;;12.88;11.50;;;;;;;;;;3585547;40;20383;-61
2021/06/08 00:17:46;;;;;;;13.70;12.00;;;;;;;;;;3585109;40;20105;-61
2021/06/08 00:20:13;;;;;;;16.10;10.98;;;;;;;;;;3585160;40;20033;-61
2021/06/08 00:22:38;;;;;;;11.88;10.60;;;;;;;;;;3584215;40;20029;-61
2021/06/08 00:25:05;;;;;;;13.60;10.75;;;;;;;;;;3575198;40;20273;-61
2021/06/08 00:27:30;;;;;;;13.55;10.63;;;;;;;;;;3584959;40;20033;-60
2021/06/08 00:29:56;;;;;;;16.63;10.85;;;;;;;;;;3583904;40;20035;-60
2021/06/08 00:32:22;;;;;;;12.77;11.20;;;;;;;;;;3583247;40;20703;-60
2021/06/08 00:34:47;;;;;;;13.93;10.57;;;;;;;;;;3584248;40;20383;-60
2021/06/08 00:37:13;;;;;;;14.30;11.73;;;;;;;;;;3585584;40;20138;-61
2021/06/08 00:39:38;;;;;;;11.13;10.02;;;;;;;;;;3585254;40;20041;-60
2021/06/08 00:42:04;;;;;;;13.25;10.95;;;;;;;;;;3583117;40;20051;-61
2021/06/08 00:44:29;;;;;;;12.15;10.95;;;;;;;;;;3576857;40;20109;-61
2021/06/08 00:46:55;;;;;;;13.15;10.88;;;;;;;;;;3585267;40;20137;-60
2021/06/08 00:49:20;;;;;;;11.13;9.93;;;;;;;;;;3584729;40;20040;-60
2021/06/08 00:51:46;;;;;;;12.90;9.95;;;;;;;;;;3582883;40;20308;-60
2021/06/08 00:54:11;;;;;;;11.25;9.57;;;;;;;;;;3584033;40;20651;-60
2021/06/08 00:56:40;;;;;;;12.57;10.18;;;;;;;;;;3585108;40;20048;-59
2021/06/08 00:59:06;;;;;;;11.75;9.93;;;;;;;;;;3582981;40;20073;-60
2021/06/08 01:01:32;;;;;;;16.75;10.05;;;;;;;;;;3583376;40;20043;-59
2021/06/08 01:03:58;;;;;;;13.85;10.75;;;;;;;;;;3584203;40;20336;-59
2021/06/08 01:06:23;;;;;;;13.98;9.68;;;;;;;;;;3584478;40;20036;-59
2021/06/08 01:08:49;;;;;;;12.85;9.77;;;;;;;;;;3583188;40;20130;-59
2021/06/08 01:11:15;;;;;;;16.40;10.50;;;;;;;;;;3581945;40;20384;-59
2021/06/08 01:13:41;;;;;;;12.48;10.63;;;;;;;;;;3585498;40;20043;-59
2021/06/08 01:16:07;;;;;;;13.77;10.05;;;;;;;;;;3584239;40;20049;-60
2021/06/08 01:18:32;;;;;;;11.65;9.48;;;;;;;;;;3585626;40;20047;-60
2021/06/08 01:21:11;;;;;;;10.60;9.50;;;;;;;;;;3578126;40;20121;-60
2021/06/08 01:23:38;;;;;;;12.50;9.90;;;;;;;;;;3587055;40;20162;-60
2021/06/08 01:26:05;;;;;;;15.40;10.98;;;;;;;;;;3588661;40;20469;-60
2021/06/08 01:28:33;;;;;;;12.48;10.40;;;;;;;;;;3587636;40;20369;-60
2021/06/08 01:31:02;;;;;;;13.57;9.40;;;;;;;;;;3579652;40;20290;-60
2021/06/08 01:33:28;;;;;;;13.50;10.25;;;;;;;;;;3586758;40;20037;-60
2021/06/08 01:35:54;;;;;;;10.70;9.60;;;;;;;;;;3586229;40;20118;-60
2021/06/08 01:38:21;;;;;;;18.52;10.02;;;;;;;;;;3585534;40;20040;-60
2021/06/08 01:40:48;;;;;;;15.68;10.32;;;;;;;;;;3586856;40;20133;-60
2021/06/08 01:43:14;;;;;;;10.55;8.82;;;;;;;;;;3585681;40;20124;-60
2021/06/08 01:45:41;;;;;;;10.50;9.35;;;;;;;;;;3586269;40;20102;-60
2021/06/08 01:48:07;;;;;;;10.80;9.60;;;;;;;;;;3586299;40;20049;-60
2021/06/08 01:50:32;;;;;;;11.88;10.02;;;;;;;;;;3585843;40;20031;-60
2021/06/08 01:53:18;;;;;;;10.63;9.50;;;;;;;;;;3584953;40;20044;-60
2021/06/08 01:55:46;;;;;;;13.15;9.23;;;;;;;;;;3585254;40;20288;-59
2021/06/08 01:58:26;;;;;;;16.45;10.30;;;;;;;;;;3586334;40;20036;-60
2021/06/08 02:01:00;;;;;;;14.70;9.55;;;;;;;;;;3581893;40;20036;-60
2021/06/08 02:03:32;;;;;;;11.75;10.00;;;;;;;;;;3585521;40;20040;-60
2021/06/08 02:06:10;;;;;;;13.68;11.25;;;;;;;;;;3585668;40;20036;-60
2021/06/08 02:08:46;;;;;;;11.52;9.65;;;;;;;;;;3582288;40;20064;-60
2021/06/08 02:11:18;;;;;;;15.82;10.80;;;;;;;;;;3584530;40;20041;-60
2021/06/08 02:13:51;;;;;;;11.85;9.88;;;;;;;;;;3584405;40;20040;-60
2021/06/08 02:16:29;;;;;;;15.77;9.15;;;;;;;;;;3586632;40;20807;-60
2021/06/08 02:18:55;;;;;;;13.98;10.48;;;;;;;;;;3583087;40;20375;-60
2021/06/08 02:21:29;;;;;;;11.68;9.75;;;;;;;;;;3584607;40;20044;-60
2021/06/08 02:23:56;;;;;;;17.25;10.27;;;;;;;;;;3585422;40;20037;-60
2021/06/08 02:26:24;;;;;;;12.02;10.50;;;;;;;;;;3587115;40;20039;-60
2021/06/08 02:28:50;;;;;;;11.50;9.90;;;;;;;;;;3583585;40;20024;-60
2021/06/08 02:31:18;;;;;;;11.73;10.52;;;;;;;;;;3584484;40;20055;-60
2021/06/08 02:33:47;;;;;;;11.57;9.77;;;;;;;;;;3585555;40;20025;-60
2021/06/08 02:36:13;;;;;;;17.52;10.02;;;;;;;;;;3585421;40;20057;-60
2021/06/08 02:38:39;;;;;;;17.95;11.35;;;;;;;;;;3584328;40;20040;-60
2021/06/08 02:41:05;;;;;;;12.43;10.57;;;;;;;;;;3582109;40;20077;-60
2021/06/08 02:43:34;;;;;;;12.30;11.07;;;;;;;;;;3585930;40;20035;-60
2021/06/08 02:46:01;;;;;;;15.45;10.90;;;;;;;;;;3585019;40;20076;-60
2021/06/08 02:48:28;;;;;;;13.85;10.75;;;;;;;;;;3586051;40;20033;-60
2021/06/08 02:50:55;;;;;;;12.23;10.90;;;;;;;;;;3587116;40;20029;-60
2021/06/08 02:53:22;;;;;;;16.98;11.05;;;;;;;;;;3588251;40;20025;-60
2021/06/08 02:55:50;;;;;;;13.23;10.82;;;;;;;;;;3587119;40;20033;-60
2021/06/08 02:58:16;;;;;;;17.27;11.52;;;;;;;;;;3586930;40;20033;-60
2021/06/08 03:00:41;;;;;;;11.80;10.60;;;;;;;;;;3586275;40;20121;-60
2021/06/08 03:03:09;;;;;;;11.80;10.52;;;;;;;;;;3586577;40;20541;-60
2021/06/08 03:05:40;;;;;;;16.63;11.15;;;;;;;;;;3585594;40;20395;-60
2021/06/08 03:08:16;;;;;;;13.82;11.13;;;;;;;;;;3586106;40;20048;-61
2021/06/08 03:10:42;;;;;;;14.13;11.70;;;;;;;;;;3586853;40;20053;-60
2021/06/08 03:13:10;;;;;;;13.73;10.80;;;;;;;;;;3585149;40;20102;-60
2021/06/08 03:15:41;;;;;;;16.38;10.25;;;;;;;;;;3575954;40;20288;-60
2021/06/08 03:18:10;;;;;;;12.27;11.00;;;;;;;;;;3585552;40;20056;-60
2021/06/08 03:20:46;;;;;;;13.32;11.38;;;;;;;;;;3584681;40;20603;-60
2021/06/08 03:23:13;;;;;;;17.52;10.65;;;;;;;;;;3585282;40;20044;-60
2021/06/08 03:25:40;;;;;;;12.35;11.02;;;;;;;;;;3585470;40;20047;-60
2021/06/08 03:28:07;;;;;;;12.10;10.65;;;;;;;;;;3586135;40;20106;-60
2021/06/08 03:30:33;;;;;;;23.52;10.60;;;;;;;;;;3584122;40;20357;-60
2021/06/08 03:32:59;;;;;;;14.45;11.73;;;;;;;;;;3582546;40;20058;-60
2021/06/08 03:35:27;;;;;;;17.60;10.55;;;;;;;;;;3583534;40;20045;-61
2021/06/08 03:37:54;;;;;;;12.40;11.10;;;;;;;;;;3582787;40;20119;-60
2021/06/08 03:40:24;;;;;;;11.48;10.27;;;;;;;;;;3584114;40;20036;-60
2021/06/08 03:42:51;;;;;;;13.60;10.50;;;;;;;;;;3584485;40;20067;-60
2021/06/08 03:45:17;;;;;;;13.38;10.80;;;;;;;;;;3585537;40;20047;-60
2021/06/08 03:47:44;;;;;;;11.88;10.63;;;;;;;;;;3584991;40;20044;-60
2021/06/08 03:50:14;;;;;;;12.88;11.45;;;;;;;;;;3583572;40;20037;-60
2021/06/08 03:52:43;;;;;;;12.13;10.88;;;;;;;;;;3583265;40;20041;-60
2021/06/08 03:55:10;;;;;;;13.07;10.50;;;;;;;;;;3586226;40;20361;-60
2021/06/08 03:57:43;;;;;;;14.77;12.05;;;;;;;;;;3577265;40;20078;-60
2021/06/08 04:00:10;;;;;;;11.73;10.55;;;;;;;;;;3584384;40;20048;-60
2021/06/08 04:02:39;;;;;;;12.82;11.48;;;;;;;;;;3583887;40;20045;-60
2021/06/08 04:05:07;;;;;;;13.38;11.32;;;;;;;;;;3585951;40;20028;-61
2021/06/08 04:07:32;;;;;;;11.48;10.20;;;;;;;;;;3585178;40;20032;-61
2021/06/08 04:09:58;;;;;;;12.10;10.90;;;;;;;;;;3581248;40;20062;-61
2021/06/08 04:12:23;;;;;;;16.25;12.40;;;;;;;;;;3584673;40;20036;-60
2021/06/08 04:14:49;;;;;;;14.30;11.00;;;;;;;;;;3585490;40;20067;-61
2021/06/08 04:17:16;;;;;;;12.85;11.00;;;;;;;;;;3583463;40;20126;-60
2021/06/08 04:19:43;;;;;;;20.88;11.55;;;;;;;;;;3582464;40;20607;-61
2021/06/08 04:22:09;;;;;;;13.93;10.93;;;;;;;;;;3585278;40;20129;-61
2021/06/08 04:24:34;;;;;;;12.77;11.32;;;;;;;;;;3578155;40;20045;-61
2021/06/08 04:27:00;;;;;;;14.95;10.45;;;;;;;;;;3586619;40;20040;-61
2021/06/08 04:29:27;;;;;;;17.15;11.00;;;;;;;;;;3585776;40;20064;-61
2021/06/08 04:31:55;;;;;;;14.18;11.57;;;;;;;;;;3586156;40;20044;-61
2021/06/08 04:34:21;;;;;;;12.73;11.05;;;;;;;;;;3585783;40;20021;-60
2021/06/08 04:36:48;;;;;;;15.15;12.15;;;;;;;;;;3586205;40;20035;-62
2021/06/08 04:39:14;;;;;;;12.15;10.93;;;;;;;;;;3579181;40;20053;-60
2021/06/08 04:41:40;;;;;;;11.23;9.68;;;;;;;;;;3585449;40;20051;-60
2021/06/08 04:44:07;;;;;;;14.27;11.40;;;;;;;;;;3586213;40;20044;-60
2021/06/08 04:46:37;;;;;;;11.80;10.60;;;;;;;;;;3585330;40;20046;-60
2021/06/08 04:49:02;;;;;;;15.38;11.45;;;;;;;;;;3584838;40;20032;-60
2021/06/08 04:51:28;;;;;;;11.63;10.25;;;;;;;;;;3582873;40;20072;-60
2021/06/08 04:53:53;;;;;;;13.93;11.50;;;;;;;;;;3584045;40;20368;-61
2021/06/08 04:56:19;;;;;;;13.00;11.75;;;;;;;;;;3584578;40;20311;-61
2021/06/08 04:58:44;;;;;;;11.77;10.40;;;;;;;;;;3586826;40;20044;-61
2021/06/08 05:01:30;;;;;;;13.75;11.57;;;;;;;;;;3574868;40;20376;-61
2021/06/08 05:04:01;;;;;;;12.75;11.43;;;;;;;;;;3583585;40;20040;-61
2021/06/08 05:06:31;;;;;;;;;;;;;;;;;;3586575;40;20044;-61
2021/06/08 05:09:00;;;;;;;13.43;10.70;;;;;;;;;;3583086;40;20152;-61
2021/06/08 05:11:33;;;;;;;13.02;11.65;;;;;;;;;;3582879;40;20137;-61
2021/06/08 05:14:01;;;;;;;16.02;12.60;;;;;;;;;;3583380;40;20034;-61
2021/06/08 05:16:28;;;;;;;15.07;11.45;;;;;;;;;;3585509;40;20036;-61
2021/06/08 05:18:55;;;;;;;12.77;11.15;;;;;;;;;;3584027;40;20033;-61
2021/06/08 05:21:21;;;;;;;12.27;10.98;;;;;;;;;;3583894;40;20041;-61
2021/06/08 05:23:50;;;;;;;12.05;10.40;;;;;;;;;;3577173;40;20074;-61
2021/06/08 05:26:16;;;;;;;12.50;11.20;;;;;;;;;;3586362;40;20035;-61
2021/06/08 05:28:41;;;;;;;15.95;11.80;;;;;;;;;;3582959;40;20033;-61
2021/06/08 05:31:07;;;;;;;13.75;12.25;;;;;;;;;;3582532;40;20353;-61
2021/06/08 05:33:33;;;;;;;12.60;11.30;;;;;;;;;;3585879;40;20356;-61
2021/06/08 05:35:59;;;;;;;13.40;10.77;;;;;;;;;;3584448;40;20029;-61
2021/06/08 05:38:39;;;;;;;13.35;11.40;;;;;;;;;;3583426;40;20042;-61
2021/06/08 05:41:13;;;;;;;14.10;11.07;;;;;;;;;;3583343;40;20049;-61
2021/06/08 05:43:39;;;;;;;14.43;10.77;;;;;;;;;;3583185;40;20102;-61
2021/06/08 05:46:06;;;;;;;16.00;10.80;;;;;;;;;;3583458;40;20033;-61
2021/06/08 05:48:32;;;;;;;12.93;11.60;;;;;;;;;;3581754;40;20036;-61
2021/06/08 05:50:59;;;;;;;16.75;11.35;;;;;;;;;;3582163;40;20044;-61
2021/06/08 05:53:25;;;;;;;13.45;11.32;;;;;;;;;;3583799;40;20119;-61
2021/06/08 05:55:54;;;;;;;16.88;11.20;;;;;;;;;;3584629;40;20064;-61
2021/06/08 05:58:28;;;;;;;12.93;10.70;;;;;;;;;;3585347;40;20028;-61
2021/06/08 06:00:55;;;;;;;12.43;11.13;;;;;;;;;;3581385;40;20025;-61
2021/06/08 06:03:22;;;;;;;18.50;11.68;;;;;;;;;;3586552;39;20052;-61
2021/06/08 06:05:48;;;;;;;12.30;11.10;;;;;;;;;;3586610;40;20028;-64
2021/06/08 06:08:15;;;;;;;13.30;11.90;;;;;;;;;;3586919;40;20103;-65
2021/06/08 06:10:42;;;;;;;15.77;11.95;;;;;;;;;;3585569;40;20041;-65
2021/06/08 06:13:10;;;;;;;14.73;12.13;;;;;;;;;;3587529;40;20037;-65
2021/06/08 06:15:36;;;;;;;14.35;12.00;;;;;;;;;;3586598;40;20110;-65
2021/06/08 06:18:01;;;;;;;12.32;11.02;;;;;;;;;;3585809;40;20037;-65
2021/06/08 06:20:27;;;;;;;17.70;11.60;;;;;;;;;;3584855;39;20033;-65
2021/06/08 06:22:53;;;;;;;15.63;12.30;;;;;;;;;;3585815;40;20025;-65
2021/06/08 06:25:19;;;;;;;12.68;11.43;;;;;;;;;;3585952;40;20033;-65
2021/06/08 06:27:45;;;;;;;13.25;11.80;;;;;;;;;;3584332;40;20297;-65
2021/06/08 06:30:13;;;;;;;13.73;11.27;;;;;;;;;;3582554;40;20045;-65
2021/06/08 06:32:39;;;;;;;13.75;12.05;;;;;;;;;;3585040;40;20419;-65
2021/06/08 06:35:06;;;;;;;13.43;11.80;;;;;;;;;;3585742;40;20134;-65
2021/06/08 06:37:33;;;;;;;13.48;12.05;;;;;;;;;;3587676;40;20047;-65
2021/06/08 06:40:00;;;;;;;15.73;11.55;;;;;;;;;;3584515;40;20049;-65
2021/06/08 06:42:30;;;;;;;12.68;11.38;;;;;;;;;;3585814;40;20510;-64
2021/06/08 06:44:58;;;;;;;12.98;11.63;;;;;;;;;;3587400;40;20452;-65
2021/06/08 06:47:24;;;;;;;13.77;12.38;;;;;;;;;;3585388;40;20568;-64
2021/06/08 06:49:49;;;;;;;13.82;12.30;;;;;;;;;;3582972;40;20032;-64
2021/06/08 06:52:16;;;;;;;14.88;11.50;;;;;;;;;;3584371;40;20033;-65
2021/06/08 06:54:44;;;;;;;13.73;12.25;;;;;;;;;;3587157;40;20068;-65
2021/06/08 06:57:10;;;;;;;13.55;11.55;;;;;;;;;;3585595;40;20107;-64
2021/06/08 06:59:36;;;;;;;11.45;10.25;;;;;;;;;;3583867;40;20055;-64
2021/06/08 07:02:02;;;;;;;12.27;10.98;;;;;;;;;;3585226;40;20147;-64
2021/06/08 07:04:28;;;;;;;13.00;11.32;;;;;;;;;;3577540;40;20133;-64
2021/06/08 07:06:56;;;;;;;15.82;12.48;;;;;;;;;;3584593;40;20048;-65
2021/06/08 07:09:23;;;;;;;13.63;10.63;;;;;;;;;;3584267;40;20058;-64
2021/06/08 07:11:51;;;;;;;12.75;11.45;;;;;;;;;;3585038;40;20037;-63
2021/06/08 07:14:18;;;;;;;12.50;11.27;;;;;;;;;;3585220;40;20037;-64
2021/06/08 07:16:44;;;;;;;12.48;11.10;;;;;;;;;;3576378;40;20479;-64
2021/06/08 07:19:13;;;;;;;12.75;11.02;;;;;;;;;;3583297;40;20029;-64
2021/06/08 07:21:40;;;;;;;13.43;12.02;;;;;;;;;;3586891;40;20057;-64
2021/06/08 07:24:06;;;;;;;15.88;11.27;;;;;;;;;;3585404;40;20055;-64
2021/06/08 07:26:32;;;;;;;12.35;10.93;;;;;;;;;;3585575;40;20037;-64
2021/06/08 07:28:58;;;;;;;13.05;10.23;;;;;;;;;;3579576;40;20385;-64
2021/06/08 07:31:36;;;;;;;13.40;12.05;;;;;;;;;;3584235;40;20077;-64
2021/06/08 07:34:06;;;;;;;12.30;11.10;;;;;;;;;;3584787;40;20032;-64
2021/06/08 07:36:43;;;;;;;13.80;10.07;;;;;;;;;;3587357;40;20032;-64
2021/06/08 07:39:08;;;;;;;12.25;10.98;;;;;;;;;;3586552;40;20126;-64
2021/06/08 07:41:46;;;;;;;12.77;10.23;;;;;;;;;;3586415;40;20316;-64
2021/06/08 07:44:18;;;;;;;17.00;11.10;;;;;;;;;;3585411;40;20404;-63
2021/06/08 07:46:46;;;;;;;14.15;11.65;;;;;;;;;;3585841;40;20129;-63
2021/06/08 07:49:12;;;;;;;12.82;10.80;;;;;;;;;;3577887;40;20088;-64
2021/06/08 07:51:42;;;;;;;14.75;12.25;;;;;;;;;;3585276;40;20599;-63
2021/06/08 07:54:09;;;;;;;15.77;12.00;;;;;;;;;;3585320;40;20214;-64
2021/06/08 07:56:36;;;;;;;14.40;11.48;;;;;;;;;;3585741;40;20033;-64
2021/06/08 07:59:02;;;;;;;12.07;10.88;;;;;;;;;;3583497;40;20048;-64
2021/06/08 08:01:27;;;;;;;12.05;10.70;;;;;;;;;;3584187;40;20036;-64
2021/06/08 08:03:54;;;;;;;11.98;10.60;;;;;;;;;;3583900;40;20032;-64
2021/06/08 08:06:22;;;;;;;15.90;11.73;;;;;;;;;;3587491;40;20044;-63
2021/06/08 08:08:48;;;;;;;12.02;10.63;;;;;;;;;;3584170;40;20024;-64
2021/06/08 08:11:15;;;;;;;12.13;10.82;;;;;;;;;;3583674;40;20435;-63
2021/06/08 08:13:44;;;;;;;13.93;11.05;;;;;;;;;;3576406;40;20169;-63
2021/06/08 08:16:11;;;;;;;11.35;10.35;;;;;;;;;;3585778;40;20061;-63
2021/06/08 08:18:38;;;;;;;11.77;10.57;;;;;;;;;;3585027;40;20036;-63
2021/06/08 08:21:09;;;;;;;12.18;9.88;;;;;;;;;;3583785;40;20028;-63
2021/06/08 08:23:36;;;;;;;13.55;10.93;;;;;;;;;;3584256;40;20024;-63
2021/06/08 08:26:04;;;;;;;11.35;10.13;;;;;;;;;;3576105;40;20037;-64
2021/06/08 08:28:31;;;;;;;11.45;10.25;;;;;;;;;;3584930;40;20037;-64
2021/06/08 08:31:00;;;;;;;13.18;10.45;;;;;;;;;;3582949;40;20448;-65
2021/06/08 08:33:27;;;;;;;10.75;9.65;;;;;;;;;;3586310;40;20024;-65
2021/06/08 08:35:53;;;;;;;12.27;10.48;;;;;;;;;;3583831;40;20029;-65
2021/06/08 08:38:19;;;;;;;12.80;10.35;;;;;;;;;;3585115;39;20032;-65
2021/06/08 08:40:45;;;;;;;11.27;9.90;;;;;;;;;;3584966;40;20198;-65
2021/06/08 08:43:11;;;;;;;12.70;9.65;;;;;;;;;;3584884;40;20045;-65
2021/06/08 08:45:37;;;;;;;16.95;10.73;;;;;;;;;;3584369;40;20041;-65
2021/06/08 08:48:03;;;;;;;13.15;11.10;;;;;;;;;;3582442;40;20040;-64
2021/06/08 08:50:28;;;;;;;12.38;10.63;;;;;;;;;;3584406;40;20051;-65
2021/06/08 08:52:59;;;;;;;11.77;10.60;;;;;;;;;;3584385;40;20090;-65
2021/06/08 08:55:28;;;;;;;13.32;11.27;;;;;;;;;;3584121;40;20109;-65
2021/06/08 08:57:56;;;;;;;11.98;10.68;;;;;;;;;;3583294;40;20037;-65
2021/06/08 09:00:24;;;;;;;12.40;10.18;;;;;;;;;;3585863;40;20056;-65
2021/06/08 09:02:56;;;;;;;17.42;9.90;;;;;;;;;;3586294;40;20030;-65
2021/06/08 09:05:22;;;;;;;15.88;10.18;;;;;;;;;;3584658;40;20376;-65
2021/06/08 09:07:50;;;;;;;11.88;10.35;;;;;;;;;;3585932;40;20036;-65
2021/06/08 09:10:16;;;;;;;12.68;10.73;;;;;;;;;;3584605;40;20047;-65
2021/06/08 09:12:42;;;;;;;12.13;10.40;;;;;;;;;;3585263;40;20055;-65
2021/06/08 09:15:08;;;;;;;10.65;9.55;;;;;;;;;;3585911;40;20041;-65
2021/06/08 09:17:35;;;;;;;11.93;10.82;;;;;;;;;;3584189;40;20051;-65
2021/06/08 09:20:03;;;;;;;22.92;11.00;;;;;;;;;;3584984;40;20488;-64
2021/06/08 09:22:51;;;;;;;12.80;10.63;;;;;;;;;;3585292;40;20037;-65
2021/06/08 09:25:38;;;;;;;10.98;9.88;;;;;;;;;;3585192;40;20044;-65
2021/06/08 09:28:23;;;;;;;13.05;11.65;;;;;;;;;;3583932;40;20029;-64
2021/06/08 09:30:54;;;;;;;11.73;10.48;;;;;;;;;;3576323;40;20036;-65
2021/06/08 09:33:19;;;;;;;;;;;;;;;;;;3585642;40;20358;-64
2021/06/08 09:35:49;;;;;;;11.23;10.07;;;;;;;;;;3584455;40;19931;-64
2021/06/08 09:38:15;;;;;;;13.70;11.15;;;;;;;;;;3585802;40;20133;-64
2021/06/08 09:40:41;;;;;;;11.60;10.35;;;;;;;;;;3584397;40;20033;-64
2021/06/08 09:43:09;;;;;;;13.93;10.90;;;;;;;;;;3585988;40;20037;-64
2021/06/08 09:45:47;;;;;;;11.35;9.35;;;;;;;;;;3587011;40;20125;-64
2021/06/08 09:48:14;;;;;;;13.90;9.88;;;;;;;;;;3585524;40;20040;-64
2021/06/08 09:50:49;;;;;;;13.25;11.07;;;;;;;;;;3586557;40;20028;-64
2021/06/08 09:53:16;;;;;;;12.85;10.60;;;;;;;;;;3586024;40;20071;-64
2021/06/08 09:55:51;;;;;;;12.60;9.75;;;;;;;;;;3586453;40;20048;-64
2021/06/08 09:58:17;;;;;;;12.13;10.07;;;;;;;;;;3584920;40;20032;-64
2021/06/08 10:00:42;;;;;;;13.18;9.85;;;;;;;;;;3578506;40;20367;-64
2021/06/08 10:03:08;;;;;;;11.13;9.82;;;;;;;;;;3586860;40;20062;-64
2021/06/08 10:05:33;;;;;;;12.00;9.40;;;;;;;;;;3586304;40;20076;-64
2021/06/08 10:07:59;;;;;;;12.15;10.15;;;;;;;;;;3582901;40;20029;-64
2021/06/08 10:10:38;;;;;;;9.93;8.95;;;;;;;;;;3583895;40;20098;-65
2021/06/08 10:13:19;;;;;;;12.38;11.07;;;;;;;;;;3586013;40;20044;-65
2021/06/08 10:15:50;;;;;;;10.30;9.27;;;;;;;;;;3585163;40;20044;-64
2021/06/08 10:18:16;;;;;;;15.30;10.15;;;;;;;;;;3582954;40;20125;-63
2021/06/08 10:20:47;;;;;;;11.25;9.63;;;;;;;;;;3576851;40;20072;-64
2021/06/08 10:23:28;;;;;;;10.38;9.30;;;;;;;;;;3585312;40;20065;-64
2021/06/08 10:26:00;;;;;;;13.50;9.90;;;;;;;;;;3586137;40;20265;-64
2021/06/08 10:28:27;;;;;;;11.00;9.90;;;;;;;;;;3582874;40;20047;-64
2021/06/08 10:30:54;;;;;;;11.32;10.20;;;;;;;;;;3586611;40;20068;-64
2021/06/08 10:33:25;;;;;;;10.70;9.68;;;;;;;;;;3584748;40;20064;-63
2021/06/08 10:35:51;;;;;;;14.45;10.60;;;;;;;;;;3584723;40;20040;-63
2021/06/08 10:38:18;;;;;;;11.10;10.10;;;;;;;;;;3586450;40;20069;-64
2021/06/08 10:40:48;;;;;;;17.65;9.48;;;;;;;;;;3586741;40;20063;-64
2021/06/08 10:43:19;;;;;;;13.27;10.10;;;;;;;;;;3586511;39;20041;-64
2021/06/08 10:45:45;;;;;;;11.43;10.25;;;;;;;;;;3586129;40;20367;-63
2021/06/08 10:48:18;;;;;;;11.88;9.75;;;;;;;;;;3578319;40;20041;-63
2021/06/08 10:50:46;;;;;;;11.73;10.10;;;;;;;;;;3585625;40;20409;-63
2021/06/08 10:53:42;;;;;;;12.45;10.30;;;;;;;;;;3586618;40;20041;-64
2021/06/08 10:56:33;;;;;;;11.65;10.45;;;;;;;;;;3577760;40;20044;-64
2021/06/08 10:59:06;;;;;;;11.27;9.60;;;;;;;;;;3584213;40;20041;-64
2021/06/08 11:01:38;;;;;;;14.63;11.15;;;;;;;;;;3583621;40;20051;-63
2021/06/08 11:04:11;;;;;;;11.75;9.98;;;;;;;;;;3584866;40;20077;-63
2021/06/08 11:06:36;;;;;;;11.48;10.20;;;;;;;;;;3587625;40;20049;-64
2021/06/08 11:09:12;;;;;;;11.57;10.43;;;;;;;;;;3583160;40;20107;-64
2021/06/08 11:11:51;;;;;;;12.18;9.85;;;;;;;;;;3585225;40;20056;-64
2021/06/08 11:14:54;;;;;;;11.23;10.13;;;;;;;;;;3585485;40;20055;-64
2021/06/08 11:17:20;;;;;;;10.88;9.60;;;;;;;;;;3578772;40;20380;-64
2021/06/08 11:19:53;;;;;;;12.80;10.40;;;;;;;;;;3584531;40;20039;-64
2021/06/08 11:22:33;;;;;;;11.10;9.35;;;;;;;;;;3585314;40;20048;-64
2021/06/08 11:25:02;;;;;;;15.77;10.50;;;;;;;;;;3586629;40;20056;-64
2021/06/08 11:28:05;;;;;;;12.55;11.05;;;;;;;;;;3585327;40;20045;-63
2021/06/08 11:30:32;;;;;;;13.95;10.13;;;;;;;;;;3532214;40;20051;-64
2021/06/08 11:32:58;;;;;;;11.80;9.63;;;;;;;;;;3576182;40;20354;-65
2021/06/08 11:35:41;;;;;;;11.98;10.70;;;;;;;;;;3585087;40;20036;-64
2021/06/08 11:38:10;;;;;;;20.45;10.98;;;;;;;;;;3575834;40;20152;-64
2021/06/08 11:40:36;;;;;;;11.05;9.85;;;;;;;;;;3583310;40;20048;-64
2021/06/08 11:43:03;;;;;;;10.32;9.07;;;;;;;;;;3585291;40;20045;-64
2021/06/08 11:45:33;;;;;;;9.77;8.77;;;;;;;;;;3572209;40;20285;-65
2021/06/08 11:47:58;;;;;;;11.85;10.10;;;;;;;;;;3574583;40;20072;-64
2021/06/08 11:50:45;;;;;;;11.98;9.70;;;;;;;;;;3585503;40;20047;-64
2021/06/08 11:53:15;;;;;;;9.90;8.70;;;;;;;;;;3585793;40;20141;-65
2021/06/08 11:55:41;;;;;;;12.45;9.80;;;;;;;;;;3584539;40;20039;-64
2021/06/08 11:58:34;;;;;;;14.07;9.65;;;;;;;;;;3582350;40;20033;-64
2021/06/08 12:01:01;;;;;;;10.80;9.65;;;;;;;;;;3575727;40;20074;-66
2021/06/08 12:03:27;;;;;;;10.73;9.63;;;;;;;;;;3576606;40;20112;-65
2021/06/08 12:05:53;;;;;;;10.48;9.40;;;;;;;;;;3584990;40;20311;-64
2021/06/08 12:08:26;;;;;;;10.90;9.82;;;;;;;;;;3586727;40;20118;-64
2021/06/08 12:10:53;;;;;;;12.77;10.00;;;;;;;;;;3577251;40;20542;-65
2021/06/08 12:13:29;;;;;;;10.23;8.90;;;;;;;;;;3584978;40;20052;-65
2021/06/08 12:15:56;;;;;;;9.90;8.85;;;;;;;;;;3585737;40;20040;-64
2021/06/08 12:18:34;;;;;;;12.63;10.48;;;;;;;;;;3585345;40;20540;-64
2021/06/08 12:21:01;;;;;;;17.17;10.43;;;;;;;;;;3584527;40;20083;-64
2021/06/08 12:23:35;;;;;;;11.02;9.55;;;;;;;;;;3585455;40;20055;-63
2021/06/08 12:26:09;;;;;;;10.52;9.43;;;;;;;;;;3584224;40;20080;-64
2021/06/08 12:28:35;;;;;;;10.05;9.00;;;;;;;;;;3584983;40;20029;-64
2021/06/08 12:31:16;;;;;;;11.02;9.45;;;;;;;;;;3584851;40;20128;-64
2021/06/08 12:33:42;;;;;;;12.68;9.50;;;;;;;;;;3584810;40;20137;-64
2021/06/08 12:36:09;;;;;;;10.75;9.70;;;;;;;;;;3586132;40;20037;-65
2021/06/08 12:38:34;;;;;;;11.80;10.52;;;;;;;;;;3584566;40;20037;-64
2021/06/08 12:41:04;;;;;;;10.32;9.25;;;;;;;;;;3585272;40;20036;-65
2021/06/08 12:43:54;;;;;;;11.18;10.00;;;;;;;;;;3584595;40;20047;-65
2021/06/08 12:46:28;;;;;;;;;;;;;;;;;;3586666;40;20041;-65
2021/06/08 12:49:04;;;;;;;11.82;10.15;;;;;;;;;;3582567;40;19981;-64
2021/06/08 12:51:36;;;;;;;10.32;9.20;;;;;;;;;;3576170;40;20040;-64
2021/06/08 12:54:04;;;;;;;11.10;9.95;;;;;;;;;;3584965;40;20044;-64
2021/06/08 12:56:29;;;;;;;15.25;9.85;;;;;;;;;;3584452;40;20129;-65
2021/06/08 12:58:56;;;;;;;11.40;10.18;;;;;;;;;;3582767;40;20053;-65
2021/06/08 13:01:22;;;;;;;12.15;9.70;;;;;;;;;;3577675;40;20264;-65
2021/06/08 13:03:48;;;;;;;12.57;10.30;;;;;;;;;;3585801;40;20044;-65
2021/06/08 13:06:19;;;;;;;10.85;9.73;;;;;;;;;;3585503;40;20029;-65
2021/06/08 13:08:46;;;;;;;11.73;10.38;;;;;;;;;;3583519;40;20060;-65
2021/06/08 13:11:20;;;;;;;13.50;9.07;;;;;;;;;;3584006;40;20039;-65
2021/06/08 13:13:46;;;;;;;11.80;10.50;;;;;;;;;;3576920;40;20151;-65
2021/06/08 13:16:37;;;;;;;11.48;10.48;;;;;;;;;;3583262;40;20049;-64
2021/06/08 13:19:15;;;;;;;15.88;10.05;;;;;;;;;;3581368;40;20037;-64
2021/06/08 13:21:41;;;;;;;13.60;10.85;;;;;;;;;;3585170;40;20077;-65
2021/06/08 13:24:18;;;;;;;10.95;9.80;;;;;;;;;;3583533;40;20049;-65
2021/06/08 13:26:46;;;;;;;15.50;10.00;;;;;;;;;;3582653;40;20041;-64
2021/06/08 13:29:12;;;;;;;13.98;9.25;;;;;;;;;;3583365;40;20032;-64
2021/06/08 13:31:41;;;;;;;11.10;9.90;;;;;;;;;;3584902;40;20134;-64
2021/06/08 13:34:36;;;;;;;10.95;9.63;;;;;;;;;;3583744;40;20092;-65
2021/06/08 13:37:04;;;;;;;14.15;10.25;;;;;;;;;;3575814;40;20024;-65
2021/06/08 13:39:55;;;;;;;11.50;9.60;;;;;;;;;;3576531;40;20048;-65
2021/06/08 13:42:22;;;;;;;10.13;9.13;;;;;;;;;;3580777;40;20109;-65
2021/06/08 13:45:03;;;;;;;10.85;9.63;;;;;;;;;;3583740;40;20070;-65
2021/06/08 13:47:39;;;;;;;11.68;9.80;;;;;;;;;;3582248;40;20029;-65
2021/06/08 13:50:19;;;;;;;10.10;9.20;;;;;;;;;;3582458;40;20085;-65
2021/06/08 13:53:08;;;;;;;13.93;9.80;;;;;;;;;;3584848;40;20454;-65
2021/06/08 13:55:46;;;;;;;14.60;9.82;;;;;;;;;;3584361;40;20040;-64
2021/06/08 14:01:14;;;;;;;11.88;9.90;;;;;;;;;;3582690;40;20028;-64
2021/06/08 14:03:41;;;;;;;12.85;8.98;;;;;;;;;;3583526;40;20090;-64
2021/06/08 14:06:15;;;;;;;10.07;9.07;;;;;;;;;;3585560;40;20263;-64
2021/06/08 14:08:41;;;;;;;19.67;9.70;;;;;;;;;;3583695;40;20353;-64
2021/06/08 14:11:06;;;;;;;10.23;9.27;;;;;;;;;;3577715;40;20030;-65
2021/06/08 14:13:43;;;;;;;11.35;9.18;;;;;;;;;;3583920;40;20033;-65
2021/06/08 14:16:18;;;;;;;11.43;9.85;;;;;;;;;;3584485;40;20033;-65
2021/06/08 14:18:44;;;;;;;12.10;10.00;;;;;;;;;;3581880;40;20045;-64
2021/06/08 14:21:10;;;;;;;11.85;9.63;;;;;;;;;;3583266;40;20037;-65
2021/06/08 14:23:36;;;;;;;19.42;9.88;;;;;;;;;;3585163;40;20035;-64
2021/06/08 14:26:13;;;;;;;11.48;10.27;;;;;;;;;;3585563;40;20029;-65
2021/06/08 14:28:38;;;;;;;12.85;9.93;;;;;;;;;;3585414;40;20694;-64
2021/06/08 14:31:04;;;;;;;10.43;9.25;;;;;;;;;;3585873;40;20517;-65
2021/06/08 14:33:29;;;;;;;12.00;10.27;;;;;;;;;;3586188;40;20029;-65
2021/06/08 14:35:55;;;;;;;14.95;10.27;;;;;;;;;;3576398;40;20039;-65